Time;durP1;ratioP1;P1;durP2;ratioP2;P2;SDS_P1;SDS_P2;PMS_P1;PMS_P2;Temp;Humidity;BMP_temperature;BMP_pressure;BME280_temperature;BME280_humidity;BME280_pressure;Samples;Min_cycle;Max_cycle;Signal;HPM_P1;HPM_P2
2023/04/03 00:01:13;;;;;;;3.70;0.85;;;;;;;0.42;43.87;103328.41;4978483;28;20438;-75
2023/04/03 00:03:38;;;;;;;1.85;0.22;;;;;;;0.53;43.78;103321.16;4995165;28;20529;-75
2023/04/03 00:06:06;;;;;;;2.13;0.20;;;;;;;0.54;43.71;103331.47;4978095;28;20033;-73
2023/04/03 00:08:32;;;;;;;2.17;0.20;;;;;;;0.54;43.79;103331.47;4972499;28;20033;-74
2023/04/03 00:10:58;;;;;;;1.85;0.13;;;;;;;0.55;43.37;103334.97;4971196;28;20127;-73
2023/04/03 00:13:24;;;;;;;2.65;0.20;;;;;;;0.46;43.77;103335.47;4977190;28;20153;-74
2023/04/03 00:15:51;;;;;;;1.00;0.15;;;;;;;0.35;44.02;103342.72;4961273;28;20038;-74
2023/04/03 00:18:16;;;;;;;2.42;0.20;;;;;;;0.36;44.32;103348.75;4977974;28;20573;-74
2023/04/03 00:20:42;;;;;;;2.15;0.13;;;;;;;0.37;44.58;103345.38;4978150;28;20036;-70
2023/04/03 00:23:07;;;;;;;4.65;0.30;;;;;;;0.38;44.50;103341.97;4977330;28;20041;-71
2023/04/03 00:25:33;;;;;;;4.45;0.22;;;;;;;0.35;44.70;103336.72;4992934;28;20047;-71
2023/04/03 00:27:59;;;;;;;1.80;0.17;;;;;;;0.27;44.74;103338.94;4992822;28;20040;-69
2023/04/03 00:30:25;;;;;;;3.65;0.20;;;;;;;0.30;44.77;103344.22;4997528;28;20829;-71
2023/04/03 00:32:52;;;;;;;4.28;0.10;;;;;;;0.26;44.83;103342.34;4979985;28;20054;-73
2023/04/03 00:35:19;;;;;;;4.35;0.55;;;;;;;0.30;44.88;103343.31;4976325;28;20026;-73
2023/04/03 00:37:45;;;;;;;2.45;0.30;;;;;;;0.23;44.73;103345.66;4994088;28;20060;-75
2023/04/03 00:40:12;;;;;;;5.13;0.60;;;;;;;0.20;44.74;103340.38;4975611;28;20034;-73
2023/04/03 00:42:40;;;;;;;2.40;0.20;;;;;;;0.23;44.79;103347.34;4976455;28;20045;-73
2023/04/03 00:45:06;;;;;;;4.07;0.22;;;;;;;0.06;45.29;103344.94;4975757;28;20034;-74
2023/04/03 00:47:31;;;;;;;4.43;0.30;;;;;;;0.11;45.44;103341.69;4975082;28;20309;-74
2023/04/03 00:49:58;;;;;;;0.70;0.10;;;;;;;0.09;45.37;103344.16;4981477;28;20041;-74
2023/04/03 00:52:29;;;;;;;4.32;0.17;;;;;;;0.03;45.44;103338.75;4991885;28;20046;-74
2023/04/03 00:55:00;;;;;;;3.30;0.40;;;;;;;0.00;45.29;103339.50;4982192;28;20072;-71
2023/04/03 00:57:26;;;;;;;6.13;0.25;;;;;;;-0.02;45.57;103337.69;4974714;28;20041;-72
2023/04/03 00:59:57;;;;;;;8.43;0.50;;;;;;;-0.08;45.70;103337.41;4976327;28;20041;-71
2023/04/03 01:02:23;;;;;;;3.08;0.30;;;;;;;-0.10;45.79;103336.47;4994237;28;20151;-74
2023/04/03 01:04:49;;;;;;;3.58;0.22;;;;;;;-0.20;46.05;103330.91;4975490;28;20794;-75
2023/04/03 01:07:18;;;;;;;2.80;0.65;;;;;;;-0.24;46.42;103328.16;4975531;28;20034;-75
2023/04/03 01:09:45;;;;;;;2.22;0.10;;;;;;;-0.22;46.23;103326.53;4969213;28;20037;-72
2023/04/03 01:12:21;;;;;;;1.23;0.20;;;;;;;-0.24;46.38;103329.03;4987909;28;20172;-71
2023/04/03 01:14:54;;;;;;;1.17;0.32;;;;;;;-0.24;46.06;103331.59;4995963;28;20037;-72
2023/04/03 01:17:30;;;;;;;2.13;0.38;;;;;;;-0.25;46.17;103337.56;4968251;28;20100;-71
2023/04/03 01:20:31;;;;;;;3.58;0.20;;;;;;;-0.31;46.24;103336.41;4959365;28;20034;-72
2023/04/03 01:23:10;;;;;;;2.88;0.20;;;;;;;-0.36;46.53;103336.19;4978370;28;20160;-75
2023/04/03 01:25:51;;;;;;;1.48;0.30;;;;;;;-0.35;46.25;103336.28;4977486;28;20033;-73
2023/04/03 01:28:31;;;;;;;4.93;0.53;;;;;;;-0.29;46.63;103338.22;4978114;28;20052;-78
2023/04/03 01:31:22;;;;;;;2.90;0.20;;;;;;;-0.38;46.75;103343.81;4972268;28;20337;-72
2023/04/03 01:33:48;;;;;;;1.42;0.20;;;;;;;-0.37;46.62;103342.13;4984096;28;20045;-71
2023/04/03 01:36:18;;;;;;;3.28;0.25;;;;;;;-0.31;46.55;103350.13;4976247;28;20038;-69
2023/04/03 01:38:43;;;;;;;3.35;0.20;;;;;;;-0.39;47.03;103341.22;4995105;28;20037;-74
2023/04/03 01:41:09;;;;;;;5.22;0.57;;;;;;;-0.40;46.51;103348.00;4993866;28;20498;-72
2023/04/03 01:43:36;;;;;;;3.35;0.20;;;;;;;-0.40;46.77;103348.00;4969150;28;20018;-72
2023/04/03 01:46:01;;;;;;;4.50;0.40;;;;;;;-0.40;46.84;103344.56;4980687;28;20044;-74
2023/04/03 01:48:26;;;;;;;11.65;0.47;;;;;;;-0.43;46.70;103342.75;4973794;28;20053;-71
2023/04/03 01:50:53;;;;;;;0.95;0.30;;;;;;;-0.44;46.87;103340.97;4981247;28;20069;-71
2023/04/03 01:53:20;;;;;;;1.95;0.38;;;;;;;-0.39;46.73;103343.78;4979533;28;20335;-71
2023/04/03 01:55:45;;;;;;;2.47;0.13;;;;;;;-0.38;46.68;103346.41;4980003;28;20674;-72
2023/04/03 01:58:11;;;;;;;8.55;0.43;;;;;;;-0.45;46.76;103348.63;4981020;28;20121;-71
2023/04/03 02:00:36;;;;;;;3.08;0.50;;;;;;;-0.57;47.61;103349.84;4981683;28;20033;-73
2023/04/03 02:03:02;;;;;;;2.25;0.60;;;;;;;-0.52;47.06;103346.59;4962873;28;20104;-71
2023/04/03 02:05:28;;;;;;;10.65;0.60;;;;;;;-0.54;47.44;103353.34;4972006;28;20029;-72
2023/04/03 02:07:53;;;;;;;1.95;0.65;;;;;;;-0.57;47.67;103354.97;4970559;28;20103;-73
2023/04/03 02:10:19;;;;;;;5.28;0.60;;;;;;;-0.50;47.18;103357.78;4979664;28;20033;-71
2023/04/03 02:12:45;;;;;;;2.60;0.25;;;;;;;-0.53;47.36;103361.09;4957985;28;20053;-72
2023/04/03 02:15:10;;;;;;;8.23;1.35;;;;;;;-0.61;47.75;103365.91;4971121;28;20581;-71
2023/04/03 02:17:36;;;;;;;3.90;0.20;;;;;;;-0.52;47.42;103367.16;4947268;28;20048;-72
2023/04/03 02:20:03;;;;;;;4.43;0.55;;;;;;;-0.56;47.47;103378.97;4983907;28;20337;-72
2023/04/03 02:22:28;;;;;;;2.13;0.63;;;;;;;-0.48;47.40;103374.16;4980223;28;20223;-72
2023/04/03 02:24:54;;;;;;;3.20;0.65;;;;;;;-0.57;47.68;103380.66;4977093;28;20036;-72
2023/04/03 02:27:20;;;;;;;1.90;0.30;;;;;;;-0.62;47.55;103382.13;4950958;28;20052;-71
2023/04/03 02:29:45;;;;;;;3.90;0.68;;;;;;;-0.63;47.63;103376.94;4967581;28;20128;-70
2023/04/03 02:32:11;;;;;;;2.53;0.40;;;;;;;-0.68;47.98;103376.72;4956249;28;20073;-72
2023/04/03 02:34:37;;;;;;;3.40;0.60;;;;;;;-0.71;48.28;103376.53;4970020;28;20073;-69
2023/04/03 02:37:03;;;;;;;1.83;0.28;;;;;;;-0.72;48.00;103374.81;4969512;28;20025;-68
2023/04/03 02:39:29;;;;;;;4.15;0.30;;;;;;;-0.60;47.92;103374.47;4973795;28;20065;-69
2023/04/03 02:41:57;;;;;;;3.15;0.35;;;;;;;-0.61;47.80;103380.44;4976965;28;20048;-69
2023/04/03 02:44:24;;;;;;;4.13;0.30;;;;;;;-0.72;48.53;103384.19;4978505;28;20517;-70
2023/04/03 02:46:50;;;;;;;2.47;0.40;;;;;;;-0.61;47.87;103383.88;4973452;28;20042;-70
2023/04/03 02:49:16;;;;;;;4.72;0.57;;;;;;;-0.84;48.69;103381.91;4953275;28;20653;-69
2023/04/03 02:51:41;;;;;;;2.45;0.32;;;;;;;-0.84;48.25;103381.91;4978398;28;20040;-67
2023/04/03 02:54:08;;;;;;;5.05;0.40;;;;;;;-0.73;48.22;103383.28;4920627;28;20042;-70
2023/04/03 02:56:36;;;;;;;3.30;0.73;;;;;;;-0.78;48.27;103387.34;4972369;28;20679;-70
2023/04/03 02:59:02;;;;;;;1.45;0.20;;;;;;;-0.86;48.46;103381.84;4939378;28;20052;-70
2023/04/03 03:01:31;;;;;;;3.28;0.40;;;;;;;-0.86;48.48;103387.00;4977991;28;20034;-69
2023/04/03 03:03:58;;;;;;;5.32;1.08;;;;;;;-0.78;48.33;103389.91;4978763;28;20038;-70
2023/04/03 03:06:23;;;;;;;1.73;0.65;;;;;;;-0.79;48.28;103393.31;4995615;28;20486;-69
2023/04/03 03:08:49;;;;;;;4.25;0.57;;;;;;;-0.81;48.20;103394.91;4925957;28;20053;-70
2023/04/03 03:11:15;;;;;;;2.60;0.40;;;;;;;-0.89;48.59;103391.97;4954023;28;20048;-72
2023/04/03 03:13:43;;;;;;;2.55;1.02;;;;;;;-0.90;48.47;103394.47;4991750;28;20042;-73
2023/04/03 03:16:09;;;;;;;3.78;0.52;;;;;;;-0.92;48.63;103401.22;4994642;28;20045;-73
2023/04/03 03:18:35;;;;;;;4.20;1.48;;;;;;;-0.94;48.27;103402.84;4968670;28;20120;-71
2023/04/03 03:21:02;;;;;;;10.57;0.60;;;;;;;-0.94;48.19;103402.84;4982575;28;20785;-74
2023/04/03 03:23:30;;;;;;;2.95;0.30;;;;;;;-0.92;48.69;103398.66;4990539;28;20037;-72
2023/04/03 03:26:02;;;;;;;3.92;0.60;;;;;;;-0.91;48.31;103408.09;4975312;28;20558;-71
2023/04/03 03:28:28;;;;;;;;;;;;;;;-0.92;48.66;103412.38;4992321;28;20124;-70
2023/04/03 03:30:53;;;;;;;4.25;0.30;;;;;;;-0.99;48.25;103416.31;4964029;28;20024;-65
2023/04/03 03:33:20;;;;;;;4.78;0.65;;;;;;;-0.98;48.41;103410.38;4936075;28;20045;-65
2023/04/03 03:35:45;;;;;;;3.17;0.60;;;;;;;-1.03;48.50;103411.84;4963005;28;20037;-66
2023/04/03 03:38:11;;;;;;;2.13;0.90;;;;;;;-1.14;48.72;103418.09;4972678;28;20056;-64
2023/04/03 03:40:37;;;;;;;2.47;0.43;;;;;;;-1.13;48.58;103419.84;4976969;28;20460;-66
2023/04/03 03:43:03;;;;;;;2.60;0.30;;;;;;;-1.22;48.55;103422.88;4951094;28;20050;-64
2023/04/03 03:45:28;;;;;;;3.38;0.70;;;;;;;-1.30;49.06;103424.16;4970372;28;20018;-71
2023/04/03 03:47:54;;;;;;;7.32;0.60;;;;;;;-1.32;49.20;103414.63;4969870;28;20049;-73
2023/04/03 03:50:20;;;;;;;1.48;0.38;;;;;;;-1.41;49.11;103415.91;4977945;28;20683;-74
2023/04/03 03:52:45;;;;;;;1.02;0.35;;;;;;;-1.33;48.81;103421.44;4939831;28;20173;-72
2023/04/03 03:55:11;;;;;;;3.63;0.65;;;;;;;-1.39;49.08;103416.88;4959641;28;20034;-70
2023/04/03 03:57:37;;;;;;;2.25;0.30;;;;;;;-1.44;48.91;103420.91;4972608;28;20044;-71
2023/04/03 04:00:04;;;;;;;1.60;0.38;;;;;;;-1.47;48.93;103417.28;4994262;28;20032;-72
2023/04/03 04:02:40;;;;;;;9.13;0.47;;;;;;;-1.52;49.02;103423.88;4956970;28;20714;-69
2023/04/03 04:05:07;;;;;;;4.43;0.95;;;;;;;-1.52;49.23;103421.31;4960995;28;20113;-68
2023/04/03 04:07:33;;;;;;;4.43;0.68;;;;;;;-1.57;49.07;103423.63;4950064;28;20118;-69
2023/04/03 04:10:00;;;;;;;1.77;0.85;;;;;;;-1.61;49.62;103411.47;4979003;28;20030;-70
2023/04/03 04:12:26;;;;;;;2.30;0.60;;;;;;;-1.51;49.49;103418.84;4941809;28;20856;-69
2023/04/03 04:14:51;;;;;;;6.03;0.43;;;;;;;-1.51;49.32;103413.69;4991444;28;20344;-69
2023/04/03 04:17:17;;;;;;;9.13;1.02;;;;;;;-1.52;49.57;103414.50;4950604;28;20192;-70
2023/04/03 04:19:43;;;;;;;4.88;0.50;;;;;;;-1.44;49.35;103427.69;4980616;28;20060;-70
2023/04/03 04:22:09;;;;;;;5.25;0.75;;;;;;;-1.42;49.43;103424.44;4970773;28;20044;-71
2023/04/03 04:24:35;;;;;;;3.65;0.32;;;;;;;-1.38;49.03;103421.19;4981567;28;20030;-72
2023/04/03 04:27:02;;;;;;;2.50;0.55;;;;;;;-1.45;48.92;103415.69;4958153;28;20048;-74
2023/04/03 04:29:35;;;;;;;1.27;0.35;;;;;;;-1.48;49.07;103424.09;4949823;28;20183;-73
2023/04/03 04:32:02;;;;;;;2.33;0.47;;;;;;;-1.48;49.07;103418.09;4956330;28;20156;-73
2023/04/03 04:34:28;;;;;;;2.40;0.20;;;;;;;-1.48;48.84;103420.66;4975075;28;20041;-71
2023/04/03 04:36:54;;;;;;;2.03;0.52;;;;;;;-1.53;49.12;103415.31;4956242;28;20034;-71
2023/04/03 04:39:22;;;;;;;3.28;0.70;;;;;;;-1.69;49.13;103415.31;4960322;28;20605;-71
2023/04/03 04:41:48;;;;;;;4.68;0.68;;;;;;;-1.74;49.23;103419.31;4997684;28;20047;-72
2023/04/03 04:44:14;;;;;;;4.75;0.45;;;;;;;-1.78;49.20;103420.81;4964915;28;20556;-70
2023/04/03 04:46:40;;;;;;;5.43;0.50;;;;;;;-1.88;49.30;103421.16;4999719;28;20038;-73
2023/04/03 04:49:07;;;;;;;2.28;0.50;;;;;;;-1.86;49.42;103424.69;4956352;28;20065;-72
2023/04/03 04:51:33;;;;;;;2.60;0.93;;;;;;;-1.85;49.60;103424.75;4996907;28;20133;-72
2023/04/03 04:53:59;;;;;;;4.78;0.65;;;;;;;-1.87;50.06;103426.34;4969970;28;20211;-71
2023/04/03 04:56:25;;;;;;;3.70;0.30;;;;;;;-1.74;49.57;103434.69;4998085;28;20526;-71
2023/04/03 04:58:52;;;;;;;3.33;0.73;;;;;;;-1.90;49.72;103436.47;4955050;28;20184;-71
2023/04/03 05:01:19;;;;;;;1.58;0.50;;;;;;;-1.72;49.28;103441.66;4982194;28;20109;-71
2023/04/03 05:03:54;;;;;;;2.92;1.30;;;;;;;-1.62;48.99;103443.00;4954200;28;20125;-72
2023/04/03 05:06:21;;;;;;;2.40;0.68;;;;;;;-1.70;49.14;103440.06;4983338;28;20038;-71
2023/04/03 05:08:47;;;;;;;8.00;0.40;;;;;;;-1.72;49.57;103439.09;4973287;28;20084;-71
2023/04/03 05:11:13;;;;;;;5.72;0.70;;;;;;;-1.69;49.51;103439.25;4958871;28;20062;-72
2023/04/03 05:13:40;;;;;;;5.28;0.85;;;;;;;-1.71;49.28;103445.09;4958957;28;20067;-72
2023/04/03 05:16:06;;;;;;;7.05;0.77;;;;;;;-1.71;49.39;103450.22;4982169;28;20030;-72
2023/04/03 05:18:32;;;;;;;7.07;0.55;;;;;;;-1.67;49.62;103452.16;4972385;28;20069;-72
2023/04/03 05:21:02;;;;;;;4.63;0.63;;;;;;;-1.67;49.42;103457.28;4974871;28;20057;-72
2023/04/03 05:23:28;;;;;;;3.53;0.70;;;;;;;-1.54;49.35;103461.38;4954301;28;20140;-72
2023/04/03 05:25:55;;;;;;;1.42;0.65;;;;;;;-1.47;49.56;103460.91;4978372;28;20506;-71
2023/04/03 05:28:21;;;;;;;2.25;0.85;;;;;;;-1.48;49.57;103462.59;4964749;28;20276;-72
2023/04/03 05:30:54;;;;;;;7.75;1.20;;;;;;;-1.38;49.45;103462.22;4975084;28;20045;-70
2023/04/03 05:33:20;;;;;;;4.75;0.77;;;;;;;-1.28;49.58;103462.72;4997063;28;20221;-75
2023/04/03 05:35:50;;;;;;;1.80;0.50;;;;;;;-1.19;49.09;103469.19;4979004;28;20046;-66
2023/04/03 05:38:21;;;;;;;5.88;0.93;;;;;;;-1.17;49.07;103469.28;4966946;28;20539;-69
2023/04/03 05:40:47;;;;;;;4.47;0.77;;;;;;;-1.14;49.18;103466.88;4977236;28;20026;-65
2023/04/03 05:43:13;;;;;;;4.70;0.65;;;;;;;-1.07;49.35;103479.19;4994829;28;20736;-66
2023/04/03 05:45:41;;;;;;;3.38;0.80;;;;;;;-0.99;49.24;103477.06;4974184;28;20065;-71
2023/04/03 05:48:06;;;;;;;2.35;0.70;;;;;;;-0.93;48.89;103477.34;4956829;28;20700;-71
2023/04/03 05:50:32;;;;;;;2.00;0.68;;;;;;;-0.73;49.49;103474.88;4986787;28;20041;-68
2023/04/03 05:52:58;;;;;;;2.80;0.52;;;;;;;-0.18;48.83;103483.53;4940397;28;20052;-72
2023/04/03 05:55:26;;;;;;;2.53;0.63;;;;;;;0.69;47.50;103485.69;4982086;28;20038;-69
2023/04/03 05:57:53;;;;;;;12.25;1.02;;;;;;;1.30;45.65;103479.63;4957485;28;21531;-68
2023/04/03 06:00:19;;;;;;;3.30;0.85;;;;;;;1.67;44.60;103491.47;4969148;28;20500;-73
2023/04/03 06:02:54;;;;;;;8.77;0.85;;;;;;;3.17;42.49;103476.19;4990078;28;20096;-73
2023/04/03 06:05:23;;;;;;;3.75;0.77;;;;;;;5.02;38.94;103478.97;4991998;28;20640;-67
2023/04/03 06:07:49;;;;;;;6.30;0.60;;;;;;;7.17;34.42;103478.19;4957358;28;20053;-70
2023/04/03 06:10:15;;;;;;;3.50;0.88;;;;;;;9.00;29.48;103482.19;4972787;28;20080;-69
2023/04/03 06:12:41;;;;;;;6.65;0.93;;;;;;;10.07;28.78;103469.81;4948098;28;20140;-65
2023/04/03 06:15:09;;;;;;;6.18;0.57;;;;;;;10.68;28.06;103479.50;4962787;28;20352;-70
2023/04/03 06:17:37;;;;;;;1.42;0.50;;;;;;;10.73;25.59;103476.94;4964998;28;20049;-70
2023/04/03 06:20:03;;;;;;;4.15;0.75;;;;;;;10.38;25.88;103475.13;4962786;28;20037;-72
2023/04/03 06:22:29;;;;;;;2.05;0.43;;;;;;;10.74;25.24;103479.53;4949518;28;20234;-72
2023/04/03 06:24:56;;;;;;;1.77;0.50;;;;;;;11.21;24.94;103480.44;4986450;28;20989;-70
2023/04/03 06:27:22;;;;;;;1.38;0.60;;;;;;;11.18;24.38;103480.44;4943930;28;20823;-69
2023/04/03 06:29:49;;;;;;;5.80;0.95;;;;;;;11.14;24.94;103481.31;4970799;28;20486;-71
2023/04/03 06:32:15;;;;;;;2.30;0.68;;;;;;;11.48;24.05;103476.03;4977847;28;20058;-71
2023/04/03 06:34:41;;;;;;;5.65;1.10;;;;;;;11.29;24.74;103483.91;4979394;28;20060;-72
2023/04/03 06:37:20;;;;;;;2.70;0.47;;;;;;;11.01;24.17;103488.28;4976382;28;20034;-71
2023/04/03 06:39:46;;;;;;;7.47;0.85;;;;;;;10.95;24.60;103494.41;4978786;28;20143;-71
2023/04/03 06:42:12;;;;;;;4.18;0.65;;;;;;;10.97;25.09;103492.69;4974573;28;20034;-69
2023/04/03 06:44:47;;;;;;;4.65;0.82;;;;;;;11.54;24.07;103496.97;4958754;28;20034;-71
2023/04/03 06:47:14;;;;;;;6.63;0.70;;;;;;;11.75;24.41;103494.25;4976363;28;20123;-70
2023/04/03 06:49:41;;;;;;;3.85;0.63;;;;;;;12.11;23.82;103497.69;4977401;28;20084;-71
2023/04/03 06:52:07;;;;;;;3.80;0.50;;;;;;;11.53;23.31;103496.09;4953859;28;20065;-71
2023/04/03 06:54:33;;;;;;;4.95;1.33;;;;;;;11.04;23.37;103498.78;4991420;28;20285;-67
2023/04/03 06:56:58;;;;;;;5.57;0.60;;;;;;;11.35;23.87;103504.88;4967635;28;20579;-71
2023/04/03 06:59:24;;;;;;;3.55;0.85;;;;;;;11.83;22.68;103497.78;4992921;28;20647;-73
2023/04/03 07:01:51;;;;;;;1.90;0.30;;;;;;;11.77;23.30;103503.03;4973683;28;20041;-71
2023/04/03 07:04:19;;;;;;;4.78;0.47;;;;;;;11.32;23.60;103507.47;4964816;28;20046;-69
2023/04/03 07:06:46;;;;;;;2.05;0.32;;;;;;;11.00;23.93;103508.38;4994394;28;20045;-70
2023/04/03 07:09:13;;;;;;;10.93;0.90;;;;;;;11.09;24.04;103506.63;4943476;28;20041;-69
2023/04/03 07:11:39;;;;;;;1.27;0.40;;;;;;;10.81;25.49;103512.69;4995048;28;20033;-69
2023/04/03 07:14:05;;;;;;;3.25;0.50;;;;;;;12.07;23.11;103514.28;4967478;28;20244;-71
2023/04/03 07:16:31;;;;;;;1.65;0.45;;;;;;;12.47;22.30;103511.47;4979254;28;20078;-69
2023/04/03 07:18:57;;;;;;;2.38;0.50;;;;;;;12.50;22.62;103517.56;4944807;28;20269;-69
2023/04/03 07:21:23;;;;;;;3.85;0.63;;;;;;;13.92;21.46;103517.19;4975303;28;20037;-70
2023/04/03 07:23:49;;;;;;;1.30;0.40;;;;;;;15.04;20.06;103516.50;4953926;28;20882;-69
2023/04/03 07:26:15;;;;;;;1.63;0.38;;;;;;;15.20;19.37;103515.31;4976756;28;20037;-70
2023/04/03 07:28:41;;;;;;;3.55;0.38;;;;;;;15.36;19.71;103513.31;4950354;28;20620;-69
2023/04/03 07:31:13;;;;;;;2.45;0.50;;;;;;;15.80;19.89;103514.22;4976390;28;20829;-69
2023/04/03 07:33:39;;;;;;;1.92;0.20;;;;;;;16.05;18.26;103517.22;4949388;28;20481;-70
2023/04/03 07:36:06;;;;;;;4.85;0.47;;;;;;;15.51;18.58;103525.34;4979208;28;20137;-71
2023/04/03 07:38:32;;;;;;;1.75;0.55;;;;;;;14.84;19.01;103530.00;4976604;28;20650;-69
2023/04/03 07:40:58;;;;;;;2.67;0.55;;;;;;;14.02;20.16;103538.13;4978940;28;20037;-70
2023/04/03 07:43:24;;;;;;;5.38;0.30;;;;;;;14.83;19.16;103533.50;4937072;28;20345;-69
2023/04/03 07:48:59;;;;;;;2.05;0.30;;;;;;;14.31;18.44;103530.72;4965855;28;20137;-71
2023/04/03 07:51:26;;;;;;;1.08;0.20;;;;;;;14.22;17.96;103527.34;4975904;28;20025;-70
2023/04/03 07:53:52;;;;;;;0.70;0.10;;;;;;;13.79;18.26;103523.50;4943936;28;20049;-69
2023/04/03 07:56:17;;;;;;;3.30;0.30;;;;;;;13.94;17.72;103531.19;4970799;28;20030;-71
2023/04/03 07:58:43;;;;;;;3.97;0.20;;;;;;;14.05;17.82;103527.56;4964112;28;20077;-71
2023/04/03 08:01:08;;;;;;;1.60;0.30;;;;;;;14.18;18.22;103523.00;4974181;28;20362;-70
2023/04/03 08:03:34;;;;;;;3.63;0.50;;;;;;;14.14;18.16;103520.44;4928786;28;20806;-70
2023/04/03 08:06:04;;;;;;;1.85;0.28;;;;;;;14.43;18.00;103527.06;4979440;28;20077;-70
2023/04/03 08:08:30;;;;;;;0.75;0.20;;;;;;;13.69;17.72;103524.47;4965573;28;20229;-69
2023/04/03 08:10:59;;;;;;;3.05;0.30;;;;;;;14.64;17.61;103523.25;4980219;28;20513;-70
2023/04/03 08:13:24;;;;;;;3.05;0.20;;;;;;;14.17;17.78;103526.53;4962290;28;20175;-71
2023/04/03 08:15:50;;;;;;;1.75;0.10;;;;;;;14.36;16.21;103520.13;4991172;28;20554;-70
2023/04/03 08:18:16;;;;;;;1.73;0.30;;;;;;;15.24;15.70;103513.50;4959564;28;20052;-71
2023/04/03 08:20:42;;;;;;;1.13;0.20;;;;;;;15.74;15.93;103509.06;4973033;28;20038;-68
2023/04/03 08:23:08;;;;;;;1.42;0.30;;;;;;;15.18;16.02;103514.47;4951798;28;20246;-69
2023/04/03 08:25:38;;;;;;;1.02;0.10;;;;;;;14.21;16.85;103518.59;4972251;28;20404;-69
2023/04/03 08:28:04;;;;;;;0.85;0.10;;;;;;;15.65;17.67;103510.09;4977790;28;20091;-68
2023/04/03 08:30:29;;;;;;;0.95;0.08;;;;;;;15.83;15.52;103508.88;4990046;28;20030;-71
2023/04/03 08:32:55;;;;;;;1.25;0.15;;;;;;;16.37;15.19;103505.94;4958704;28;20568;-71
2023/04/03 08:35:20;;;;;;;5.00;0.28;;;;;;;16.00;15.47;103500.66;4968817;28;20158;-71
2023/04/03 08:37:46;;;;;;;0.50;0.10;;;;;;;15.48;16.14;103507.81;4948898;28;20086;-68
2023/04/03 08:40:16;;;;;;;1.50;0.68;;;;;;;14.76;14.67;103507.25;4972130;28;20554;-69
2023/04/03 08:42:51;;;;;;;1.58;0.10;;;;;;;14.64;14.62;103501.34;4978209;28;20127;-69
2023/04/03 08:45:31;;;;;;;0.65;0.08;;;;;;;13.57;16.33;103514.13;4973206;28;20104;-69
2023/04/03 08:48:19;;;;;;;1.08;0.10;;;;;;;12.96;17.47;103505.91;4974000;28;20928;-68
2023/04/03 08:50:52;;;;;;;1.10;0.15;;;;;;;12.79;17.24;103507.78;4978035;28;20506;-70
2023/04/03 08:53:23;;;;;;;3.10;0.10;;;;;;;13.16;16.06;103517.97;4958680;28;20053;-70
2023/04/03 08:55:50;;;;;;;1.35;0.10;;;;;;;10.95;18.01;103504.88;4967806;28;20034;-69
2023/04/03 08:58:21;;;;;;;0.65;0.05;;;;;;;12.42;18.16;103510.59;4959150;28;20061;-70
2023/04/03 09:01:00;;;;;;;2.97;0.23;;;;;;;11.92;17.52;103506.50;4980207;28;20046;-69
2023/04/03 09:03:29;;;;;;;0.75;0.05;;;;;;;10.93;18.08;103506.63;4952024;28;20797;-69
2023/04/03 09:06:16;;;;;;;1.05;0.10;;;;;;;10.69;18.24;103509.19;4977631;28;20034;-69
2023/04/03 09:09:13;;;;;;;1.80;0.08;;;;;;;10.85;18.07;103500.50;4935031;28;20537;-69
2023/04/03 09:11:55;;;;;;;0.45;0.03;;;;;;;10.32;18.11;103501.25;4981882;28;20030;-69
2023/04/03 09:14:23;;;;;;;1.17;0.00;;;;;;;10.06;17.91;103502.03;4978351;28;20057;-69
2023/04/03 09:17:10;;;;;;;4.68;0.10;;;;;;;10.14;17.90;103500.31;4982797;28;20127;-69
2023/04/03 09:19:48;;;;;;;0.98;0.10;;;;;;;11.13;17.84;103503.13;4981449;28;20042;-69
2023/04/03 09:22:21;;;;;;;1.00;0.20;;;;;;;12.08;17.75;103497.69;4956868;28;20073;-69
2023/04/03 09:24:55;;;;;;;1.58;0.10;;;;;;;11.40;18.15;103510.09;4983952;28;20355;-69
2023/04/03 09:27:21;;;;;;;4.63;0.30;;;;;;;11.03;18.48;103508.34;4991170;28;20502;-71
2023/04/03 09:29:46;;;;;;;3.38;0.10;;;;;;;10.78;17.94;103501.34;4979376;28;20131;-70
2023/04/03 09:32:26;;;;;;;0.30;0.00;;;;;;;11.52;18.92;103504.81;4970832;28;20252;-69
2023/04/03 09:34:58;;;;;;;0.52;0.10;;;;;;;11.02;18.55;103511.00;4970170;28;20046;-68
2023/04/03 09:37:42;;;;;;;1.27;0.10;;;;;;;10.62;17.85;103511.78;4957116;28;20589;-70
2023/04/03 09:40:26;;;;;;;0.60;0.03;;;;;;;10.14;18.64;103508.16;4988756;28;20651;-68
2023/04/03 09:42:54;;;;;;;0.15;0.00;;;;;;;10.86;19.31;103506.59;4963656;28;20073;-70
2023/04/03 09:45:39;;;;;;;1.33;0.10;;;;;;;11.20;17.97;103500.50;4993142;28;20399;-70
2023/04/03 09:48:14;;;;;;;0.20;0.00;;;;;;;9.61;19.42;103506.13;4962937;28;20343;-70
2023/04/03 09:51:01;;;;;;;0.95;0.10;;;;;;;10.10;20.57;103506.41;4960749;28;20092;-70
2023/04/03 09:53:32;;;;;;;1.77;0.10;;;;;;;10.80;18.03;103504.84;4974894;28;20053;-71
2023/04/03 09:55:59;;;;;;;2.53;0.10;;;;;;;10.61;18.30;103496.94;4982189;28;20030;-69
2023/04/03 09:58:28;;;;;;;1.83;0.10;;;;;;;10.72;18.13;103498.72;4969049;28;20974;-70
2023/04/03 10:01:00;;;;;;;1.35;0.10;;;;;;;10.20;19.47;103494.25;4980716;28;20041;-71
2023/04/03 10:03:36;;;;;;;0.88;0.10;;;;;;;10.50;18.71;103488.22;4970216;28;20053;-71
2023/04/03 10:06:04;;;;;;;0.52;0.10;;;;;;;10.27;18.56;103482.94;4996022;28;20114;-70
2023/04/03 10:08:36;;;;;;;0.10;0.00;;;;;;;10.18;19.23;103478.56;4954736;28;20279;-70
2023/04/03 10:11:11;;;;;;;1.63;0.10;;;;;;;10.73;18.22;103483.03;4977129;28;20045;-70
2023/04/03 10:13:50;;;;;;;1.65;0.30;;;;;;;11.22;17.21;103475.19;4929825;28;20046;-69
2023/04/03 10:16:20;;;;;;;0.60;0.08;;;;;;;11.30;18.52;103474.31;4977507;28;20095;-70
2023/04/03 10:19:07;;;;;;;0.32;0.10;;;;;;;11.44;16.72;103478.66;4981281;28;20092;-70
2023/04/03 10:21:46;;;;;;;1.23;0.10;;;;;;;11.65;18.14;103480.34;4991689;28;20029;-69
2023/04/03 10:24:31;;;;;;;2.08;0.00;;;;;;;11.86;17.52;103478.53;4947453;28;20049;-70
2023/04/03 10:27:05;;;;;;;0.85;0.13;;;;;;;10.91;18.26;103476.97;4976635;28;20060;-69
2023/04/03 10:29:43;;;;;;;1.02;0.10;;;;;;;11.03;18.74;103471.72;4972147;28;21385;-70
2023/04/03 10:32:26;;;;;;;1.08;0.10;;;;;;;11.14;18.56;103457.75;4977050;28;20049;-70
2023/04/03 10:35:32;;;;;;;1.52;0.10;;;;;;;10.95;18.76;103463.00;4975714;28;20037;-70
2023/04/03 10:38:32;;;;;;;2.40;0.17;;;;;;;11.02;19.36;103456.91;4938245;28;20144;-69
2023/04/03 10:41:37;;;;;;;1.05;0.15;;;;;;;11.27;17.48;103456.00;4977236;28;20900;-70
2023/04/03 10:44:14;;;;;;;1.55;0.10;;;;;;;10.67;18.40;103453.38;4978243;28;20042;-70
2023/04/03 10:46:51;;;;;;;0.50;0.00;;;;;;;10.76;18.73;103456.84;4994901;28;20029;-70
2023/04/03 10:49:46;;;;;;;0.95;0.10;;;;;;;11.09;18.08;103456.91;4942107;28;20061;-69
2023/04/03 10:52:11;;;;;;;0.43;0.10;;;;;;;10.53;19.06;103456.00;4949524;28;20325;-69
2023/04/03 10:54:45;;;;;;;0.35;0.00;;;;;;;9.92;19.06;103454.97;4987671;28;20133;-70
2023/04/03 10:57:11;;;;;;;0.38;0.10;;;;;;;9.60;21.10;103452.16;4974359;28;20042;-69
2023/04/03 10:59:51;;;;;;;2.22;0.10;;;;;;;9.62;19.61;103454.78;4975618;28;20029;-69
2023/04/03 11:02:24;;;;;;;2.28;0.30;;;;;;;10.24;20.86;103446.34;4950177;28;20073;-70
2023/04/03 11:04:57;;;;;;;1.48;0.10;;;;;;;10.63;20.35;103440.28;4984596;28;20515;-70
2023/04/03 11:07:28;;;;;;;0.55;0.10;;;;;;;11.15;18.55;103438.53;4964527;28;20136;-70
2023/04/03 11:10:13;;;;;;;0.57;0.00;;;;;;;11.17;17.98;103448.16;4973933;28;20659;-71
2023/04/03 11:12:45;;;;;;;0.73;0.20;;;;;;;10.69;17.38;103449.03;4962357;28;20064;-69
2023/04/03 11:15:18;;;;;;;0.50;0.08;;;;;;;11.23;17.33;103431.56;4983654;28;20335;-69
2023/04/03 11:17:52;;;;;;;1.77;0.30;;;;;;;11.04;17.52;103431.59;4971437;28;20426;-69
2023/04/03 11:20:27;;;;;;;1.90;0.00;;;;;;;11.40;17.53;103437.63;4969151;28;20069;-69
2023/04/03 11:23:11;;;;;;;1.63;0.10;;;;;;;11.28;17.39;103429.78;4955109;28;20095;-68
2023/04/03 11:25:38;;;;;;;0.38;0.00;;;;;;;11.11;16.76;103429.84;4966404;28;20792;-69
2023/04/03 11:28:11;;;;;;;0.70;0.10;;;;;;;10.89;16.73;103425.50;4989482;28;20123;-70
2023/04/03 11:31:08;;;;;;;0.20;0.00;;;;;;;11.24;18.31;103425.44;4966698;28;20037;-69
2023/04/03 11:33:45;;;;;;;0.57;0.10;;;;;;;11.28;16.47;103416.72;4944948;28;20068;-69
2023/04/03 11:36:31;;;;;;;0.60;0.10;;;;;;;11.38;17.26;103410.59;4991750;28;20033;-69
2023/04/03 11:39:01;;;;;;;0.93;0.20;;;;;;;11.21;18.76;103409.75;4974917;28;20073;-70
2023/04/03 11:41:33;;;;;;;0.52;0.03;;;;;;;10.54;18.25;103424.59;4990255;28;20030;-71